createdAt,value
2019-05-16T00:02:28.456Z,76.00
2019-05-16T00:04:59.223Z,76.40
2019-05-16T00:07:28.703Z,76.60
2019-05-16T00:09:59.052Z,76.00
2019-05-16T00:12:29.139Z,76.50
2019-05-16T00:14:59.775Z,76.50
2019-05-16T00:17:29.363Z,76.90
2019-05-16T00:19:59.009Z,77.00
2019-05-16T00:22:28.832Z,77.40
2019-05-16T00:24:58.234Z,76.10
2019-05-16T00:27:28.032Z,75.60
2019-05-16T00:29:58.259Z,76.00
2019-05-16T00:32:28.854Z,75.80
2019-05-16T00:34:58.473Z,75.70
2019-05-16T00:37:28.710Z,75.30
2019-05-16T00:39:58.830Z,75.20
2019-05-16T00:42:28.627Z,75.20
2019-05-16T00:44:58.517Z,75.20
2019-05-16T00:47:28.498Z,75.30
2019-05-16T00:49:58.323Z,75.30
2019-05-16T00:52:28.818Z,75.50
2019-05-16T00:54:58.706Z,75.70
2019-05-16T00:57:28.813Z,75.70
2019-05-16T00:59:59.875Z,75.90
2019-05-16T01:02:29.843Z,75.80
2019-05-16T01:04:59.198Z,75.50
2019-05-16T01:07:28.475Z,75.30
2019-05-16T01:09:58.310Z,75.50
2019-05-16T01:12:28.484Z,75.70
2019-05-16T01:14:59.159Z,75.80
2019-05-16T01:17:29.504Z,76.10
2019-05-16T01:19:59.090Z,76.40
2019-05-16T01:22:29.075Z,76.70
2019-05-16T01:24:58.615Z,76.90
2019-05-16T01:27:28.326Z,76.90
2019-05-16T01:29:58.441Z,77.20
2019-05-16T01:32:31.827Z,77.30
2019-05-16T01:34:58.975Z,77.40
2019-05-16T01:37:29.366Z,77.80
2019-05-16T01:39:58.838Z,78.10
2019-05-16T01:42:28.193Z,77.90
2019-05-16T01:44:57.912Z,78.10
2019-05-16T01:47:28.839Z,78.20
2019-05-16T01:49:58.217Z,78.20
2019-05-16T01:52:29.070Z,78.20
2019-05-16T01:54:58.921Z,78.10
2019-05-16T01:57:28.434Z,78.20
2019-05-16T01:59:58.975Z,78.20
2019-05-16T02:02:29.013Z,78.00
2019-05-16T02:04:59.384Z,78.20
2019-05-16T02:07:28.661Z,78.40
2019-05-16T02:09:58.340Z,78.30
2019-05-16T02:12:27.931Z,78.00
2019-05-16T02:14:58.760Z,78.30
2019-05-16T02:17:28.916Z,78.20
2019-05-16T02:19:58.344Z,78.50
2019-05-16T02:22:28.514Z,78.30
2019-05-16T02:24:58.507Z,78.20
2019-05-16T02:27:29.095Z,78.40
2019-05-16T02:30:00.026Z,78.30
2019-05-16T02:32:31.228Z,78.40
2019-05-16T02:35:01.348Z,78.50
2019-05-16T02:37:34.863Z,78.20
2019-05-16T02:40:01.979Z,78.40
2019-05-16T02:42:32.646Z,78.50
2019-05-16T02:45:02.709Z,78.50
2019-05-16T02:47:34.998Z,78.40
2019-05-16T02:50:05.178Z,78.60
2019-05-16T02:52:34.858Z,78.50
2019-05-16T02:55:05.087Z,79.00
2019-05-16T02:57:34.381Z,79.10
2019-05-16T03:00:05.577Z,79.40
2019-05-16T03:02:34.909Z,79.00
2019-05-16T03:05:05.818Z,79.20
2019-05-16T03:07:41.558Z,78.90
2019-05-16T03:10:10.932Z,79.00
2019-05-16T03:12:41.123Z,79.20
2019-05-16T03:15:11.123Z,78.80
2019-05-16T03:17:44.054Z,78.60
2019-05-16T03:20:14.128Z,78.50
2019-05-16T03:22:44.482Z,78.90
2019-05-16T03:25:13.764Z,78.70
2019-05-16T03:27:43.184Z,78.90
2019-05-16T03:30:16.405Z,79.20
2019-05-16T03:32:45.716Z,79.00
2019-05-16T03:35:16.840Z,78.50
2019-05-16T03:37:55.839Z,78.50
2019-05-16T03:40:31.303Z,78.60
2019-05-16T03:43:01.425Z,78.50
2019-05-16T03:45:31.986Z,78.60
2019-05-16T03:48:02.868Z,78.70
2019-05-16T03:50:32.701Z,78.80
2019-05-16T03:53:02.042Z,78.80
2019-05-16T03:55:32.408Z,78.80
2019-05-16T03:58:03.332Z,78.40
2019-05-16T04:00:52.338Z,78.40
2019-05-16T04:03:21.520Z,78.40
2019-05-16T04:05:52.662Z,78.50
2019-05-16T04:08:25.148Z,78.40
2019-05-16T04:10:53.358Z,78.20
2019-05-16T04:13:22.660Z,78.50
2019-05-16T04:15:53.046Z,78.20
2019-05-16T04:18:23.516Z,78.10
2019-05-16T04:20:53.183Z,77.70
2019-05-16T04:23:22.499Z,78.10
2019-05-16T04:25:53.220Z,78.10
2019-05-16T04:28:23.507Z,78.30
2019-05-16T04:30:53.285Z,78.30
2019-05-16T04:33:22.805Z,78.60
2019-05-16T04:35:53.040Z,78.50
2019-05-16T04:38:35.142Z,78.30
2019-05-16T04:40:54.048Z,78.50
2019-05-16T04:43:23.333Z,78.50
2019-05-16T04:45:52.965Z,78.40
2019-05-16T04:48:23.113Z,78.50
2019-05-16T04:50:52.887Z,78.30
2019-05-16T04:53:22.262Z,78.30
2019-05-16T04:55:52.361Z,78.30
2019-05-16T04:58:23.602Z,78.40
2019-05-16T05:00:53.193Z,78.30
2019-05-16T05:03:22.956Z,78.70
2019-05-16T05:05:52.277Z,78.50
2019-05-16T05:08:22.513Z,78.90
2019-05-16T05:10:52.301Z,78.70
2019-05-16T05:13:23.087Z,78.90
2019-05-16T05:15:52.679Z,78.50
2019-05-16T05:18:22.325Z,78.90
2019-05-16T05:20:52.771Z,78.70
2019-05-16T05:23:22.541Z,79.20
2019-05-16T05:25:51.937Z,79.10
2019-05-16T05:28:21.553Z,79.10
2019-05-16T05:30:51.351Z,79.20
2019-05-16T05:33:21.372Z,79.20
2019-05-16T05:35:51.288Z,79.30
2019-05-16T05:38:21.662Z,79.20
2019-05-16T05:40:52.178Z,78.80
2019-05-16T05:43:21.989Z,78.20
2019-05-16T05:45:52.399Z,77.90
2019-05-16T05:48:22.138Z,77.20
2019-05-16T05:50:51.854Z,77.10
2019-05-16T05:53:21.292Z,77.30
2019-05-16T05:55:51.751Z,77.60
2019-05-16T05:58:21.604Z,77.00
2019-05-16T06:00:52.135Z,76.90
2019-05-16T06:03:23.283Z,77.20
2019-05-16T06:05:52.934Z,76.40
2019-05-16T06:08:22.219Z,76.30
2019-05-16T06:10:51.519Z,76.10
2019-05-16T06:13:21.146Z,76.00
2019-05-16T06:15:51.338Z,75.60
2019-05-16T06:18:20.830Z,75.70
2019-05-16T06:20:51.343Z,75.40
2019-05-16T06:23:21.171Z,76.10
2019-05-16T06:25:51.066Z,75.10
2019-05-16T06:28:21.293Z,75.30
2019-05-16T06:30:51.804Z,74.30
2019-05-16T06:33:21.797Z,74.10
2019-05-16T06:35:51.600Z,74.80
2019-05-16T06:38:21.397Z,75.30
2019-05-16T06:40:52.770Z,74.70
2019-05-16T06:43:21.901Z,74.00
2019-05-16T06:45:51.708Z,74.30
2019-05-16T06:48:21.634Z,74.50
2019-05-16T06:50:51.945Z,75.00
2019-05-16T06:53:21.468Z,74.50
2019-05-16T06:55:50.838Z,73.70
2019-05-16T06:58:22.269Z,73.80
2019-05-16T07:00:52.343Z,74.50
2019-05-16T07:03:22.079Z,73.90
2019-05-16T07:05:51.382Z,74.20
2019-05-16T07:08:21.517Z,73.90
2019-05-16T07:10:51.173Z,73.50
2019-05-16T07:13:20.694Z,73.10
2019-05-16T07:15:50.486Z,72.80
2019-05-16T07:18:21.253Z,72.90
2019-05-16T07:20:51.493Z,72.50
2019-05-16T07:23:21.360Z,72.10
2019-05-16T07:25:50.988Z,72.40
2019-05-16T07:28:21.207Z,72.40
2019-05-16T07:30:51.719Z,72.20
2019-05-16T07:33:21.550Z,72.50
2019-05-16T07:35:51.457Z,72.50
2019-05-16T07:38:21.053Z,72.40
2019-05-16T07:40:51.078Z,72.40
2019-05-16T07:43:22.189Z,72.20
2019-05-16T07:45:51.753Z,72.60
2019-05-16T07:48:22.274Z,72.10
2019-05-16T07:50:52.641Z,71.50
2019-05-16T07:53:22.375Z,71.40
2019-05-16T07:55:51.676Z,71.50
2019-05-16T07:58:22.119Z,71.30
2019-05-16T08:01:02.126Z,70.30
2019-05-16T08:03:22.947Z,70.90
2019-05-16T08:05:52.246Z,70.50
2019-05-16T08:08:24.252Z,71.00
2019-05-16T08:10:52.801Z,70.90
2019-05-16T08:13:22.401Z,70.10
2019-05-16T08:15:51.705Z,70.50
2019-05-16T08:18:21.609Z,71.70
2019-05-16T08:20:52.489Z,71.10
2019-05-16T08:23:22.918Z,71.70
2019-05-16T08:25:52.342Z,71.10
2019-05-16T08:28:22.082Z,70.70
2019-05-16T08:30:53.177Z,71.50
2019-05-16T08:33:22.891Z,70.00
2019-05-16T08:35:52.460Z,71.10
2019-05-16T08:38:22.047Z,70.80
2019-05-16T08:41:08.028Z,69.70
2019-05-16T08:43:22.746Z,69.90
2019-05-16T08:45:52.165Z,70.40
2019-05-16T08:50:54.556Z,70.40
2019-05-16T08:53:23.871Z,69.60
2019-05-16T08:55:53.194Z,70.40
2019-05-16T08:58:23.073Z,70.30
2019-05-16T09:00:55.964Z,70.50
2019-05-16T09:03:23.882Z,69.60
2019-05-16T09:05:53.908Z,69.70
2019-05-16T09:08:23.239Z,69.30
2019-05-16T09:10:31.814Z,71.00
2019-05-16T09:11:15.913Z,68.80
2019-05-16T09:13:23.557Z,69.30
2019-05-16T09:15:53.152Z,69.60
2019-05-16T09:18:22.437Z,68.80
2019-05-16T09:20:51.772Z,68.70
2019-05-16T09:23:21.047Z,70.70
2019-05-16T09:25:51.241Z,70.10
2019-05-16T09:28:20.606Z,70.10
2019-05-16T09:30:49.904Z,68.70
2019-05-16T09:33:19.260Z,67.70
2019-05-16T09:35:48.563Z,68.20
2019-05-16T09:38:23.160Z,68.20
2019-05-16T09:40:48.850Z,67.10
2019-05-16T09:43:18.313Z,67.10
2019-05-16T09:45:48.051Z,66.60
2019-05-16T09:48:18.955Z,67.40
2019-05-16T09:50:49.537Z,67.40
2019-05-16T09:53:18.829Z,67.30
2019-05-16T09:55:48.513Z,66.10
2019-05-16T09:58:18.682Z,66.20
2019-05-16T10:00:48.344Z,66.60
2019-05-16T10:03:22.322Z,64.80
2019-05-16T10:05:48.804Z,65.60
2019-05-16T10:08:18.114Z,64.30
2019-05-16T10:10:47.398Z,63.70
2019-05-16T10:13:18.259Z,63.80
2019-05-16T10:15:47.982Z,65.00
2019-05-16T10:18:17.275Z,66.00
2019-05-16T10:20:46.847Z,65.70
2019-05-16T10:23:18.105Z,66.10
2019-05-16T10:25:47.897Z,66.10
2019-05-16T10:28:20.164Z,65.70
2019-05-16T10:30:50.066Z,65.70
2019-05-16T10:33:20.030Z,65.90
2019-05-16T10:35:49.641Z,66.20
2019-05-16T10:38:18.944Z,65.60
2019-05-16T10:40:48.634Z,65.70
2019-05-16T10:43:17.935Z,66.60
2019-05-16T10:45:47.545Z,66.10
2019-05-16T10:48:17.721Z,67.60
2019-05-16T10:50:47.892Z,67.70
2019-05-16T10:53:43.042Z,67.30
2019-05-16T10:55:49.897Z,67.30
2019-05-16T10:58:35.645Z,69.00
2019-05-16T11:01:17.859Z,67.30
2019-05-16T11:03:23.781Z,68.90
2019-05-16T11:06:02.889Z,67.30
2019-05-16T11:08:24.296Z,67.80
2019-05-16T11:10:53.605Z,67.00
2019-05-16T11:13:22.979Z,67.90
2019-05-16T11:15:52.297Z,67.00
2019-05-16T11:18:21.610Z,67.80
2019-05-16T11:20:50.901Z,66.70
2019-05-16T11:23:23.302Z,66.40
2019-05-16T11:25:54.716Z,66.80
2019-05-16T11:28:22.617Z,66.20
2019-05-16T11:30:52.047Z,66.90
2019-05-16T11:33:21.483Z,66.70
2019-05-16T11:35:50.790Z,67.80
2019-05-16T11:38:20.057Z,67.70
2019-05-16T11:40:49.346Z,66.80
2019-05-16T11:43:21.678Z,66.40
2019-05-16T11:45:50.030Z,67.70
2019-05-16T11:48:19.321Z,68.10
2019-05-16T11:50:48.934Z,67.80
2019-05-16T11:53:18.675Z,67.60
2019-05-16T11:55:55.483Z,68.90
2019-05-16T11:58:19.304Z,68.40
2019-05-16T12:00:48.738Z,69.50
2019-05-16T12:03:18.068Z,70.10
2019-05-16T12:05:48.473Z,69.60
2019-05-16T12:08:18.948Z,68.40
2019-05-16T12:10:48.554Z,68.70
2019-05-16T12:13:28.211Z,68.20
2019-05-16T12:15:49.136Z,68.80
2019-05-16T12:18:18.523Z,68.40
2019-05-16T12:20:47.818Z,69.70
2019-05-16T12:23:17.341Z,68.90
2019-05-16T12:25:47.643Z,68.10
2019-05-16T12:28:17.363Z,67.70
2019-05-16T12:30:47.189Z,67.70
2019-05-16T12:33:18.683Z,68.20
2019-05-16T12:35:47.754Z,69.30
2019-05-16T12:38:17.363Z,70.20
2019-05-16T12:40:48.020Z,69.90
2019-05-16T12:43:18.250Z,70.20
2019-05-16T12:45:47.611Z,71.10
2019-05-16T12:48:20.263Z,69.90
2019-05-16T12:50:48.398Z,70.40
2019-05-16T12:53:17.758Z,71.20
2019-05-16T12:55:47.667Z,70.50
2019-05-16T12:58:24.867Z,69.90
2019-05-16T13:00:57.760Z,69.10
2019-05-16T13:03:20.192Z,70.20
2019-05-16T13:05:49.494Z,69.70
2019-05-16T13:08:19.063Z,69.60
2019-05-16T13:10:48.385Z,69.60
2019-05-16T13:13:18.022Z,70.50
2019-05-16T13:15:47.851Z,70.80
2019-05-16T13:18:17.240Z,71.20
2019-05-16T13:20:46.974Z,70.20
2019-05-16T13:23:18.281Z,72.30
2019-05-16T13:25:48.309Z,72.20
2019-05-16T13:28:18.001Z,72.10
2019-05-16T13:30:47.391Z,73.00
2019-05-16T13:33:17.755Z,73.40
2019-05-16T13:35:47.535Z,74.00
2019-05-16T13:38:17.665Z,73.20
2019-05-16T13:40:48.129Z,73.80
2019-05-16T13:43:20.328Z,73.20
2019-05-16T13:45:49.690Z,74.20
2019-05-16T13:48:19.971Z,74.30
2019-05-16T13:50:50.335Z,75.70
2019-05-16T13:53:19.625Z,75.60
2019-05-16T13:55:49.209Z,75.80
2019-05-16T13:58:18.492Z,76.60
2019-05-16T14:00:48.161Z,76.10
2019-05-16T14:03:18.059Z,75.40
2019-05-16T14:05:47.880Z,76.00
2019-05-16T14:08:17.566Z,76.00
2019-05-16T14:10:48.793Z,76.10
2019-05-16T14:13:18.308Z,76.90
2019-05-16T14:15:47.611Z,76.90
2019-05-16T14:18:17.636Z,76.60
2019-05-16T14:20:47.126Z,76.50
2019-05-16T14:23:17.567Z,78.00
2019-05-16T14:25:48.424Z,78.50
2019-05-16T14:28:17.935Z,79.10
2019-05-16T14:30:47.592Z,79.20
2019-05-16T14:33:17.314Z,78.80
2019-05-16T14:35:47.271Z,78.70
2019-05-16T14:38:17.603Z,78.30
2019-05-16T14:40:50.176Z,78.40
2019-05-16T14:43:18.488Z,78.50
2019-05-16T14:45:47.866Z,78.10
2019-05-16T14:48:18.472Z,78.80
2019-05-16T14:50:47.945Z,78.40
2019-05-16T14:53:17.985Z,78.20
2019-05-16T14:55:48.565Z,79.50
2019-05-16T14:58:18.220Z,80.10
2019-05-16T15:00:49.007Z,81.80
2019-05-16T15:03:19.292Z,81.00
2019-05-16T15:05:48.920Z,81.40
2019-05-16T15:08:18.421Z,82.90
2019-05-16T15:10:47.714Z,85.10
2019-05-16T15:13:17.660Z,84.40
2019-05-16T15:15:47.418Z,83.00
2019-05-16T15:18:17.769Z,83.00
2019-05-16T15:20:47.539Z,83.20
2019-05-16T15:23:17.542Z,81.90
2019-05-16T15:25:47.116Z,83.40
2019-05-16T15:28:17.221Z,82.40
2019-05-16T15:30:47.079Z,82.10
2019-05-16T15:33:19.706Z,81.70
2019-05-16T15:35:47.557Z,81.60
2019-05-16T15:38:16.843Z,81.80
2019-05-16T15:40:48.135Z,82.60
2019-05-16T15:43:18.568Z,82.90
2019-05-16T15:45:52.759Z,82.90
2019-05-16T15:48:19.311Z,83.00
2019-05-16T15:50:48.583Z,83.50
2019-05-16T15:53:18.173Z,82.80
2019-05-16T15:55:47.717Z,82.90
2019-05-16T15:58:18.592Z,82.80
2019-05-16T16:00:49.722Z,82.70
2019-05-16T16:03:19.688Z,82.80
2019-05-16T16:05:49.117Z,82.30
2019-05-16T16:08:18.664Z,82.90
2019-05-16T16:10:48.193Z,82.10
2019-05-16T16:13:19.917Z,80.90
2019-05-16T16:15:54.106Z,81.90
2019-05-16T16:18:21.754Z,81.60
2019-05-16T16:20:50.534Z,81.10
2019-05-16T16:23:20.146Z,80.90
2019-05-16T16:25:51.106Z,81.10
2019-05-16T16:28:20.984Z,81.20
2019-05-16T16:30:50.324Z,80.90
2019-05-16T16:33:25.792Z,80.90
2019-05-16T16:35:51.069Z,81.40
2019-05-16T16:38:20.390Z,80.70
2019-05-16T16:40:49.652Z,80.60
2019-05-16T16:43:19.270Z,80.30
2019-05-16T16:45:48.577Z,80.20
2019-05-16T16:48:18.194Z,80.80
2019-05-16T16:50:47.550Z,80.30
2019-05-16T16:53:17.614Z,79.90
2019-05-16T16:55:47.728Z,79.50
2019-05-16T16:58:17.699Z,79.50
2019-05-16T17:00:47.870Z,79.00
2019-05-16T17:03:17.563Z,79.40
2019-05-16T17:05:46.853Z,79.20
2019-05-16T17:08:17.239Z,79.30
2019-05-16T17:10:47.680Z,79.40
2019-05-16T17:13:17.211Z,79.40
2019-05-16T17:15:47.304Z,79.30
2019-05-16T17:18:17.392Z,79.10
2019-05-16T17:20:47.680Z,79.40
2019-05-16T17:23:17.551Z,79.50
2019-05-16T17:25:47.308Z,79.40
2019-05-16T17:28:17.568Z,80.00
2019-05-16T17:30:48.270Z,79.80
2019-05-16T17:33:18.375Z,80.20
2019-05-16T17:35:48.978Z,80.50
2019-05-16T17:38:18.520Z,81.00
2019-05-16T17:40:47.818Z,80.40
2019-05-16T17:43:19.559Z,80.80
2019-05-16T17:45:48.842Z,80.60
2019-05-16T17:48:18.169Z,80.30
2019-05-16T17:50:47.645Z,80.40
2019-05-16T17:53:17.468Z,80.70
2019-05-16T17:55:47.275Z,80.90
2019-05-16T17:58:16.947Z,80.50
2019-05-16T18:00:47.351Z,81.00
2019-05-16T18:03:17.535Z,81.10
2019-05-16T18:05:47.628Z,80.90
2019-05-16T18:08:17.086Z,80.70
2019-05-16T18:10:47.134Z,81.10
2019-05-16T18:13:16.665Z,81.10
2019-05-16T18:15:47.409Z,81.70
2019-05-16T18:18:17.666Z,81.10
2019-05-16T18:20:55.886Z,81.20
2019-05-16T18:23:18.297Z,81.40
2019-05-16T18:25:47.608Z,81.60
2019-05-16T18:28:17.578Z,81.40
2019-05-16T18:30:47.393Z,81.50
2019-05-16T18:33:17.161Z,83.40
2019-05-16T18:35:47.258Z,83.80
2019-05-16T18:38:16.761Z,84.10
2019-05-16T18:40:47.394Z,83.70
2019-05-16T18:43:17.239Z,84.30
2019-05-16T18:45:47.330Z,85.20
2019-05-16T18:48:17.791Z,85.50
2019-05-16T18:50:47.712Z,85.50
2019-05-16T18:53:17.838Z,85.80
2019-05-16T18:55:47.228Z,85.90
2019-05-16T18:58:18.041Z,85.60
2019-05-16T19:00:47.613Z,85.70
2019-05-16T19:03:16.988Z,85.90
2019-05-16T19:05:46.689Z,86.20
2019-05-16T19:08:16.420Z,86.50
2019-05-16T19:10:47.350Z,86.40
2019-05-16T19:13:18.041Z,86.30
2019-05-16T19:15:49.336Z,86.80
2019-05-16T19:18:18.856Z,87.40
2019-05-16T19:20:48.865Z,89.10
2019-05-16T19:23:18.605Z,89.80
2019-05-16T19:25:48.351Z,89.80
2019-05-16T19:28:17.647Z,90.80
2019-05-16T19:30:47.172Z,89.90
2019-05-16T19:33:17.405Z,90.20
2019-05-16T19:35:48.947Z,89.40
2019-05-16T19:38:19.270Z,89.10
2019-05-16T19:40:48.566Z,88.70
2019-05-16T19:43:18.176Z,89.50
2019-05-16T19:45:47.455Z,89.30
2019-05-16T19:48:17.446Z,89.30
2019-05-16T19:50:47.004Z,88.90
2019-05-16T19:53:16.574Z,89.20
2019-05-16T19:55:47.072Z,89.40
2019-05-16T19:58:16.750Z,89.20
2019-05-16T20:00:46.589Z,89.30
2019-05-16T20:03:16.641Z,89.40
2019-05-16T20:05:47.768Z,89.40
2019-05-16T20:08:17.601Z,89.40
2019-05-16T20:10:47.709Z,89.50
2019-05-16T20:13:17.366Z,89.60
2019-05-16T20:15:47.717Z,89.70
2019-05-16T20:18:18.486Z,90.00
2019-05-16T20:20:47.949Z,90.00
2019-05-16T20:23:18.745Z,90.30
2019-05-16T20:25:48.187Z,90.60
2019-05-16T20:28:18.391Z,90.70
2019-05-16T20:30:48.198Z,90.60
2019-05-16T20:33:18.100Z,90.60
2019-05-16T20:35:47.511Z,90.60
2019-05-16T20:38:17.346Z,90.80
2019-05-16T20:40:47.039Z,90.90
2019-05-16T20:43:16.867Z,90.80
2019-05-16T20:45:47.854Z,91.00
2019-05-16T20:48:18.486Z,90.90
2019-05-16T20:50:49.231Z,91.00
2019-05-16T20:53:19.011Z,90.90
2019-05-16T20:55:49.634Z,90.80
2019-05-16T20:58:19.320Z,90.70
2019-05-16T21:00:49.836Z,90.80
2019-05-16T21:03:20.334Z,91.00
2019-05-16T21:05:50.906Z,91.40
2019-05-16T21:08:20.697Z,91.60
2019-05-16T21:10:49.978Z,91.60
2019-05-16T21:13:19.453Z,91.70
2019-05-16T21:15:49.029Z,91.80
2019-05-16T21:18:18.309Z,92.00
2019-05-16T21:20:47.599Z,92.40
2019-05-16T21:23:19.477Z,92.50
2019-05-16T21:25:48.125Z,92.70
2019-05-16T21:28:19.870Z,93.20
2019-05-16T21:30:48.460Z,93.20
2019-05-16T21:33:18.683Z,93.80
2019-05-16T21:35:48.115Z,94.10
2019-05-16T21:38:17.392Z,94.60
2019-05-16T21:40:46.953Z,94.80
2019-05-16T21:43:17.309Z,95.10
2019-05-16T21:45:47.450Z,95.50
2019-05-16T21:48:19.404Z,96.60
2019-05-16T21:50:47.923Z,96.50
2019-05-16T21:53:17.819Z,96.70
2019-05-16T21:55:47.556Z,97.00
2019-05-16T21:58:17.164Z,97.40
2019-05-16T22:00:49.042Z,97.90
2019-05-16T22:03:19.306Z,97.80
2019-05-16T22:05:48.971Z,98.50
2019-05-16T22:08:19.599Z,98.50
2019-05-16T22:10:49.315Z,98.30
2019-05-16T22:13:20.210Z,98.30
2019-05-16T22:15:49.495Z,98.20
2019-05-16T22:18:18.777Z,98.40
2019-05-16T22:20:49.346Z,98.70
2019-05-16T22:23:18.918Z,98.90
2019-05-16T22:25:49.377Z,98.90
2019-05-16T22:28:19.280Z,99.40
2019-05-16T22:30:49.093Z,99.60
2019-05-16T22:33:18.397Z,99.60
2019-05-16T22:35:49.509Z,99.30
2019-05-16T22:38:18.802Z,99.40
2019-05-16T22:40:48.415Z,99.90
2019-05-16T22:43:17.698Z,99.90
2019-05-16T22:45:48.053Z,99.90
2019-05-16T22:48:17.511Z,99.90
2019-05-16T22:50:46.777Z,99.90
2019-05-16T22:53:17.281Z,99.90
2019-05-16T22:55:47.782Z,99.90
2019-05-16T22:58:17.266Z,99.90
2019-05-16T23:00:46.915Z,99.90
2019-05-16T23:03:17.545Z,99.90
2019-05-16T23:05:47.335Z,99.90
2019-05-16T23:08:16.786Z,99.90
2019-05-16T23:10:46.077Z,99.90
2019-05-16T23:13:16.972Z,99.90
2019-05-16T23:15:46.485Z,99.90
2019-05-16T23:18:17.242Z,99.90
2019-05-16T23:20:47.384Z,99.80
2019-05-16T23:23:17.391Z,99.80
2019-05-16T23:25:46.880Z,99.90
2019-05-16T23:28:16.800Z,99.90
2019-05-16T23:30:47.146Z,99.90
2019-05-16T23:33:16.626Z,99.90
2019-05-16T23:35:46.847Z,99.90
2019-05-16T23:38:20.028Z,99.90
2019-05-16T23:40:48.410Z,99.90
2019-05-16T23:43:17.689Z,99.90
2019-05-16T23:45:47.136Z,99.90
2019-05-16T23:48:16.523Z,99.90
2019-05-16T23:50:47.456Z,99.90
2019-05-16T23:53:16.949Z,99.90
2019-05-16T23:55:47.162Z,99.90
2019-05-16T23:58:16.672Z,99.90
